Time;durP1;ratioP1;P1;durP2;ratioP2;P2;SDS_P1;SDS_P2;PMS_P1;PMS_P2;Temp;Humidity;BMP_temperature;BMP_pressure;BME280_temperature;BME280_humidity;BME280_pressure;Samples;Min_cycle;Max_cycle;Signal;HPM_P1;HPM_P2
2023/07/15 00:00:41;;;;;;;;;6.00;5.33;;;;;;;;5032339;28;52994;-56
2023/07/15 00:03:10;;;;;;;;;3.00;3.00;;;;;;;;5032471;28;50832;-56
2023/07/15 00:05:37;;;;;;;;;2.33;2.00;;;;;;;;5031483;28;51308;-56
2023/07/15 00:08:03;;;;;;;;;2.33;2.00;;;;;;;;5030334;28;51195;-56
2023/07/15 00:10:29;;;;;;;;;2.67;2.67;;;;;;;;5032038;28;51906;-55
2023/07/15 00:12:54;;;;;;;;;2.00;2.00;;;;;;;;5032223;28;50973;-55
2023/07/15 00:15:19;;;;;;;;;2.00;2.00;;;;;;;;5031879;28;51403;-57
2023/07/15 00:17:45;;;;;;;;;1.67;1.67;;;;;;;;5032102;28;51057;-57
2023/07/15 00:20:14;;;;;;;;;2.67;2.67;;;;;;;;5024160;28;51908;-56
2023/07/15 00:22:39;;;;;;;;;4.00;4.00;;;;;;;;5026799;28;51186;-57
2023/07/15 00:25:05;;;;;;;;;2.00;1.67;;;;;;;;5026991;28;51140;-57
2023/07/15 00:27:30;;;;;;;;;2.00;2.00;;;;;;;;5031604;28;51159;-57
2023/07/15 00:29:56;;;;;;;;;5.00;5.00;;;;;;;;5028160;28;51842;-56
2023/07/15 00:32:21;;;;;;;;;3.00;2.00;;;;;;;;5029591;28;50895;-56
2023/07/15 00:34:46;;;;;;;;;2.00;2.00;;;;;;;;5031297;28;51682;-55
2023/07/15 00:37:11;;;;;;;;;1.33;1.33;;;;;;;;5032265;28;51304;-55
2023/07/15 00:39:37;;;;;;;;;2.00;2.00;;;;;;;;5032798;28;51148;-57
2023/07/15 00:42:07;;;;;;;;;2.00;2.00;;;;;;;;5031165;28;51176;-55
2023/07/15 00:44:32;;;;;;;;;2.00;2.00;;;;;;;;5031873;28;50793;-57
2023/07/15 00:47:12;;;;;;;;;2.00;2.00;;;;;;;;5032915;28;51097;-55
2023/07/15 00:49:38;;;;;;;;;1.67;1.00;;;;;;;;5024850;28;52796;-57
2023/07/15 00:52:09;;;;;;;;;3.00;2.00;;;;;;;;5031951;28;51165;-57
2023/07/15 00:54:36;;;;;;;;;1.67;1.67;;;;;;;;5031211;28;51283;-57
2023/07/15 00:57:02;;;;;;;;;5.00;5.00;;;;;;;;5030783;28;51294;-55
2023/07/15 00:59:28;;;;;;;;;4.00;3.00;;;;;;;;5028939;28;51736;-57
2023/07/15 01:01:54;;;;;;;;;2.00;2.00;;;;;;;;5028454;28;51065;-56
2023/07/15 01:04:20;;;;;;;;;1.00;1.00;;;;;;;;5029342;28;51196;-55
2023/07/15 01:06:46;;;;;;;;;2.00;1.00;;;;;;;;5031191;28;51177;-57
2023/07/15 01:09:12;;;;;;;;;1.33;1.33;;;;;;;;5029978;28;54127;-56
2023/07/15 01:11:37;;;;;;;;;2.00;2.00;;;;;;;;5030849;28;51073;-55
2023/07/15 01:14:02;;;;;;;;;2.00;2.00;;;;;;;;5031359;28;50912;-55
2023/07/15 01:16:28;;;;;;;;;1.67;1.67;;;;;;;;5027182;28;51459;-56
2023/07/15 01:18:53;;;;;;;;;1.67;1.00;;;;;;;;5029303;28;51722;-56
2023/07/15 01:21:19;;;;;;;;;1.33;1.00;;;;;;;;5017746;28;50930;-57
2023/07/15 01:23:44;;;;;;;;;1.33;1.33;;;;;;;;5031012;28;50946;-57
2023/07/15 01:26:13;;;;;;;;;2.00;1.33;;;;;;;;5032243;28;51326;-57
2023/07/15 01:28:38;;;;;;;;;0.67;0.67;;;;;;;;5030434;28;51080;-57
2023/07/15 01:31:04;;;;;;;;;1.00;1.00;;;;;;;;5032430;28;51046;-54
2023/07/15 01:33:29;;;;;;;;;1.00;1.00;;;;;;;;5030765;28;51088;-55
2023/07/15 01:35:55;;;;;;;;;2.00;2.00;;;;;;;;5030632;28;51335;-57
2023/07/15 01:38:20;;;;;;;;;1.67;1.67;;;;;;;;5031267;28;51579;-57
2023/07/15 01:40:45;;;;;;;;;1.00;1.00;;;;;;;;5026337;28;51317;-57
2023/07/15 01:43:11;;;;;;;;;2.00;2.00;;;;;;;;5027259;28;51582;-57
2023/07/15 01:45:36;;;;;;;;;1.00;1.00;;;;;;;;5028423;28;51069;-57
2023/07/15 01:48:02;;;;;;;;;1.00;1.00;;;;;;;;5029990;28;52475;-57
2023/07/15 01:50:27;;;;;;;;;1.33;1.33;;;;;;;;5027183;28;51058;-57
2023/07/15 01:52:52;;;;;;;;;1.00;1.00;;;;;;;;5022083;28;50951;-56
2023/07/15 01:55:17;;;;;;;;;2.00;2.00;;;;;;;;5031397;28;51054;-57
2023/07/15 01:57:43;;;;;;;;;1.00;0.33;;;;;;;;5030740;28;51062;-56
2023/07/15 02:00:09;;;;;;;;;1.00;1.00;;;;;;;;5028932;28;51082;-56
2023/07/15 02:02:34;;;;;;;;;1.00;1.00;;;;;;;;5030824;28;51008;-56
2023/07/15 02:04:59;;;;;;;;;2.00;1.67;;;;;;;;5030235;28;51141;-56
2023/07/15 02:07:25;;;;;;;;;1.67;1.67;;;;;;;;5029595;28;51727;-56
2023/07/15 02:09:50;;;;;;;;;1.00;1.00;;;;;;;;5029271;28;51124;-56
2023/07/15 02:12:15;;;;;;;;;3.00;3.00;;;;;;;;5034553;28;50875;-57
2023/07/15 02:14:44;;;;;;;;;2.00;1.33;;;;;;;;5033718;28;51110;-57
2023/07/15 02:17:09;;;;;;;;;4.00;2.00;;;;;;;;5033301;28;51114;-55
2023/07/15 02:19:34;;;;;;;;;1.33;1.33;;;;;;;;5034736;28;51129;-56
2023/07/15 02:21:59;;;;;;;;;1.33;1.00;;;;;;;;5032714;28;51035;-56
2023/07/15 02:24:25;;;;;;;;;1.00;1.00;;;;;;;;5031168;28;51239;-55
2023/07/15 02:26:50;;;;;;;;;1.00;1.00;;;;;;;;5031885;28;51224;-55
2023/07/15 02:29:15;;;;;;;;;1.00;1.00;;;;;;;;5034277;28;51042;-56
2023/07/15 02:31:44;;;;;;;;;1.00;1.00;;;;;;;;5031906;28;51085;-57
2023/07/15 02:34:09;;;;;;;;;2.00;2.00;;;;;;;;5034102;28;51330;-57
2023/07/15 02:36:35;;;;;;;;;2.00;2.00;;;;;;;;5033376;28;50989;-56
2023/07/15 02:39:00;;;;;;;;;2.00;2.00;;;;;;;;5032733;28;50917;-56
2023/07/15 02:41:25;;;;;;;;;2.67;2.00;;;;;;;;5031981;28;50985;-55
2023/07/15 02:43:50;;;;;;;;;1.00;1.00;;;;;;;;5034353;28;50968;-56
2023/07/15 02:46:16;;;;;;;;;2.00;1.00;;;;;;;;5032883;28;50962;-55
2023/07/15 02:48:41;;;;;;;;;2.00;2.00;;;;;;;;5028812;28;51049;-58
2023/07/15 02:51:06;;;;;;;;;2.00;2.00;;;;;;;;5026710;28;50907;-57
2023/07/15 02:53:31;;;;;;;;;1.00;1.00;;;;;;;;5031265;28;51331;-56
2023/07/15 02:55:57;;;;;;;;;1.00;1.00;;;;;;;;5034021;28;51822;-57
2023/07/15 02:58:22;;;;;;;;;1.00;1.00;;;;;;;;5031669;28;51077;-57
2023/07/15 03:00:50;;;;;;;;;1.00;1.00;;;;;;;;5034106;28;51171;-57
2023/07/15 03:03:15;;;;;;;;;0.33;0.33;;;;;;;;5032205;28;51395;-57
2023/07/15 03:05:45;;;;;;;;;2.00;2.00;;;;;;;;5026257;28;51092;-56
2023/07/15 03:08:10;;;;;;;;;0.67;0.67;;;;;;;;5030393;28;51143;-57
2023/07/15 03:10:35;;;;;;;;;1.00;1.00;;;;;;;;5032772;28;50798;-57
2023/07/15 03:13:01;;;;;;;;;0.00;0.00;;;;;;;;5034824;28;50936;-56
2023/07/15 03:15:26;;;;;;;;;1.00;1.00;;;;;;;;5030447;28;51099;-56
2023/07/15 03:17:51;;;;;;;;;1.00;1.00;;;;;;;;5029280;28;51052;-57
2023/07/15 03:20:19;;;;;;;;;0.00;0.00;;;;;;;;5033245;28;50860;-56
2023/07/15 03:22:48;;;;;;;;;2.00;2.00;;;;;;;;5022543;28;51172;-56
2023/07/15 03:25:14;;;;;;;;;1.00;0.00;;;;;;;;5032247;28;51124;-58
2023/07/15 03:27:39;;;;;;;;;0.33;0.33;;;;;;;;5033621;28;50917;-57
2023/07/15 03:30:07;;;;;;;;;2.00;1.00;;;;;;;;5031820;28;50853;-59
2023/07/15 03:32:33;;;;;;;;;1.00;1.00;;;;;;;;5032558;28;51123;-57
2023/07/15 03:34:58;;;;;;;;;2.00;2.00;;;;;;;;5033209;28;52104;-56
2023/07/15 03:37:23;;;;;;;;;1.00;1.00;;;;;;;;5032114;28;51167;-57
2023/07/15 03:39:48;;;;;;;;;1.00;1.00;;;;;;;;5021356;28;51120;-57
2023/07/15 03:42:14;;;;;;;;;0.00;0.00;;;;;;;;5031975;28;51763;-57
2023/07/15 03:44:39;;;;;;;;;1.33;1.33;;;;;;;;5032093;28;51378;-57
2023/07/15 03:47:04;;;;;;;;;2.00;2.00;;;;;;;;5033816;28;50952;-56
2023/07/15 03:49:29;;;;;;;;;1.00;1.00;;;;;;;;5033252;28;51062;-57
2023/07/15 03:51:54;;;;;;;;;0.67;0.67;;;;;;;;5033332;28;51133;-57
2023/07/15 03:54:19;;;;;;;;;1.00;1.00;;;;;;;;5029418;28;51933;-57
2023/07/15 03:56:45;;;;;;;;;1.00;1.00;;;;;;;;5033882;28;51033;-58
2023/07/15 03:59:10;;;;;;;;;2.00;2.00;;;;;;;;5032280;28;51123;-57
2023/07/15 04:01:35;;;;;;;;;1.67;1.67;;;;;;;;5032545;28;51261;-57
2023/07/15 04:04:08;;;;;;;;;1.00;1.00;;;;;;;;5023459;28;51286;-57
2023/07/15 04:06:33;;;;;;;;;1.00;1.00;;;;;;;;5031670;28;51026;-56
2023/07/15 04:08:58;;;;;;;;;1.67;1.00;;;;;;;;5032445;28;51097;-56
2023/07/15 04:11:23;;;;;;;;;1.33;1.00;;;;;;;;5031309;28;51322;-57
2023/07/15 04:13:48;;;;;;;;;1.00;1.00;;;;;;;;5031933;28;50986;-56
2023/07/15 04:16:14;;;;;;;;;0.00;0.00;;;;;;;;5032389;28;51007;-57
2023/07/15 04:18:39;;;;;;;;;1.00;1.00;;;;;;;;5031782;28;51074;-57
2023/07/15 04:21:05;;;;;;;;;1.00;1.00;;;;;;;;5030676;28;51395;-57
2023/07/15 04:23:30;;;;;;;;;1.00;1.00;;;;;;;;5031970;28;51641;-57
2023/07/15 04:25:55;;;;;;;;;1.00;1.00;;;;;;;;5025375;28;51088;-57
2023/07/15 04:28:20;;;;;;;;;0.67;0.00;;;;;;;;5032702;28;51161;-57
2023/07/15 04:30:46;;;;;;;;;1.00;1.00;;;;;;;;5030565;28;51047;-57
2023/07/15 04:33:11;;;;;;;;;1.00;0.33;;;;;;;;5030478;28;51661;-55
2023/07/15 04:35:37;;;;;;;;;1.33;1.00;;;;;;;;5032164;28;51210;-56
2023/07/15 04:38:02;;;;;;;;;0.33;0.33;;;;;;;;5032297;28;50856;-57
2023/07/15 04:40:27;;;;;;;;;1.00;1.00;;;;;;;;5032610;28;51119;-56
2023/07/15 04:42:52;;;;;;;;;1.00;1.00;;;;;;;;5031895;28;51114;-56
2023/07/15 04:45:18;;;;;;;;;1.00;0.00;;;;;;;;5026981;28;51133;-56
2023/07/15 04:47:43;;;;;;;;;2.00;1.00;;;;;;;;5032311;28;51268;-56
2023/07/15 04:50:08;;;;;;;;;1.00;1.00;;;;;;;;5031084;28;50972;-56
2023/07/15 04:52:33;;;;;;;;;1.00;1.00;;;;;;;;5031353;28;51601;-58
2023/07/15 04:54:59;;;;;;;;;1.00;1.00;;;;;;;;5032124;28;51090;-55
2023/07/15 04:57:24;;;;;;;;;3.33;1.00;;;;;;;;5032435;28;51298;-57
2023/07/15 04:59:50;;;;;;;;;0.67;0.33;;;;;;;;5032408;28;50851;-56
2023/07/15 05:02:16;;;;;;;;;1.00;1.00;;;;;;;;5028124;28;52101;-56
2023/07/15 05:04:41;;;;;;;;;1.00;1.00;;;;;;;;5032525;28;51002;-57
2023/07/15 05:07:06;;;;;;;;;3.33;3.33;;;;;;;;5028701;28;51385;-57
2023/07/15 05:09:32;;;;;;;;;2.00;2.00;;;;;;;;5026022;28;51343;-57
2023/07/15 05:11:57;;;;;;;;;1.00;1.00;;;;;;;;5032219;28;51793;-57
2023/07/15 05:14:22;;;;;;;;;1.00;1.00;;;;;;;;5030756;28;51012;-56
2023/07/15 05:16:47;;;;;;;;;2.00;2.00;;;;;;;;5026556;28;51324;-56
2023/07/15 05:19:12;;;;;;;;;1.67;1.67;;;;;;;;5024433;28;51349;-57
2023/07/15 05:21:38;;;;;;;;;1.00;1.00;;;;;;;;5029781;28;51061;-56
2023/07/15 05:24:03;;;;;;;;;0.00;0.00;;;;;;;;5029223;28;51014;-56
2023/07/15 05:26:28;;;;;;;;;1.33;1.33;;;;;;;;5031222;28;51053;-57
2023/07/15 05:28:53;;;;;;;;;0.00;0.00;;;;;;;;5032190;28;51242;-57
2023/07/15 05:31:18;;;;;;;;;2.00;1.67;;;;;;;;5030786;28;52006;-57
2023/07/15 05:33:44;;;;;;;;;2.00;2.00;;;;;;;;5031688;28;51081;-57
2023/07/15 05:36:10;;;;;;;;;0.33;0.33;;;;;;;;5028019;28;51180;-56
2023/07/15 05:38:40;;;;;;;;;1.00;1.00;;;;;;;;5029657;28;51496;-56
2023/07/15 05:41:05;;;;;;;;;2.33;2.00;;;;;;;;5031160;28;50998;-55
2023/07/15 05:43:30;;;;;;;;;1.00;1.00;;;;;;;;5031556;28;51194;-56
2023/07/15 05:45:56;;;;;;;;;1.67;1.67;;;;;;;;5029706;28;52753;-56
2023/07/15 05:48:21;;;;;;;;;1.67;1.33;;;;;;;;5031786;28;51311;-56
2023/07/15 05:50:46;;;;;;;;;2.00;2.00;;;;;;;;5031646;28;51810;-57
2023/07/15 05:53:11;;;;;;;;;1.00;1.00;;;;;;;;5033374;28;51164;-57
2023/07/15 05:55:37;;;;;;;;;2.00;2.00;;;;;;;;5034642;28;51374;-57
2023/07/15 05:58:02;;;;;;;;;1.00;1.00;;;;;;;;5034479;28;51003;-56
2023/07/15 06:00:31;;;;;;;;;1.00;1.00;;;;;;;;5031165;28;51895;-56
2023/07/15 06:02:56;;;;;;;;;0.67;0.67;;;;;;;;5027237;28;51209;-55
2023/07/15 06:05:21;;;;;;;;;1.00;1.00;;;;;;;;5026491;28;51284;-57
2023/07/15 06:07:48;;;;;;;;;2.00;2.00;;;;;;;;5029156;28;51397;-56
2023/07/15 06:10:13;;;;;;;;;1.00;1.00;;;;;;;;5030641;28;51097;-56
2023/07/15 06:12:38;;;;;;;;;2.33;1.67;;;;;;;;5030020;28;51397;-56
2023/07/15 06:15:04;;;;;;;;;1.33;1.33;;;;;;;;5034801;28;52572;-56
2023/07/15 06:17:29;;;;;;;;;2.00;2.00;;;;;;;;5034134;28;51055;-54
2023/07/15 06:19:54;;;;;;;;;3.00;3.00;;;;;;;;5033967;28;50858;-55
2023/07/15 06:22:19;;;;;;;;;1.00;1.00;;;;;;;;5034222;28;51163;-56
2023/07/15 06:24:45;;;;;;;;;2.33;2.00;;;;;;;;5026615;28;50886;-56
2023/07/15 06:27:10;;;;;;;;;3.00;3.00;;;;;;;;5027301;28;51334;-56
2023/07/15 06:29:36;;;;;;;;;4.00;4.00;;;;;;;;5034875;28;52249;-56
2023/07/15 06:32:01;;;;;;;;;2.00;2.00;;;;;;;;5030339;28;51026;-55
2023/07/15 06:34:27;;;;;;;;;3.00;2.33;;;;;;;;5031506;28;51105;-56
2023/07/15 06:36:52;;;;;;;;;3.00;2.33;;;;;;;;5033027;28;51463;-58
2023/07/15 06:39:17;;;;;;;;;4.00;4.00;;;;;;;;5030973;28;51137;-56
2023/07/15 06:41:43;;;;;;;;;3.00;3.00;;;;;;;;5034831;28;51340;-56
2023/07/15 06:44:08;;;;;;;;;2.00;2.00;;;;;;;;5032943;28;51182;-57
2023/07/15 06:46:33;;;;;;;;;4.67;4.67;;;;;;;;5034915;28;50957;-56
2023/07/15 06:48:58;;;;;;;;;3.00;3.00;;;;;;;;5034771;28;51104;-56
2023/07/15 06:51:24;;;;;;;;;2.00;1.33;;;;;;;;5033496;28;51047;-59
2023/07/15 06:53:49;;;;;;;;;2.00;2.00;;;;;;;;5034750;28;50946;-55
2023/07/15 06:56:14;;;;;;;;;3.00;3.00;;;;;;;;5031892;28;51072;-56
2023/07/15 06:58:39;;;;;;;;;3.00;3.00;;;;;;;;5033296;28;51233;-55
2023/07/15 07:01:05;;;;;;;;;2.33;2.33;;;;;;;;5034596;28;51211;-56
2023/07/15 07:03:30;;;;;;;;;3.00;3.00;;;;;;;;5032906;28;51125;-55
2023/07/15 07:05:55;;;;;;;;;2.00;2.00;;;;;;;;5033065;28;50994;-55
2023/07/15 07:08:24;;;;;;;;;1.00;1.00;;;;;;;;5033785;28;51080;-56
2023/07/15 07:10:52;;;;;;;;;1.00;1.00;;;;;;;;5033303;28;51068;-56
2023/07/15 07:13:20;;;;;;;;;3.67;3.67;;;;;;;;5032959;28;50953;-63
2023/07/15 07:15:47;;;;;;;;;2.67;2.33;;;;;;;;5022376;28;51128;-59
2023/07/15 07:18:12;;;;;;;;;2.00;2.00;;;;;;;;5031112;28;52096;-58
2023/07/15 07:20:38;;;;;;;;;2.67;2.67;;;;;;;;5033776;28;51087;-58
2023/07/15 07:23:03;;;;;;;;;2.00;2.00;;;;;;;;5034227;28;50975;-58
2023/07/15 07:25:28;;;;;;;;;2.00;2.00;;;;;;;;5028703;28;51376;-60
2023/07/15 07:27:53;;;;;;;;;1.00;1.00;;;;;;;;5029320;28;50967;-60
2023/07/15 07:30:18;;;;;;;;;2.00;2.00;;;;;;;;5022071;28;50911;-59
2023/07/15 07:32:43;;;;;;;;;3.33;3.00;;;;;;;;5030925;28;51200;-60
2023/07/15 07:35:09;;;;;;;;;2.00;1.00;;;;;;;;5034271;28;51183;-59
2023/07/15 07:37:34;;;;;;;;;4.00;2.00;;;;;;;;5031488;28;50943;-59
2023/07/15 07:39:59;;;;;;;;;2.67;2.67;;;;;;;;5033119;28;51144;-58
2023/07/15 07:42:25;;;;;;;;;2.33;2.33;;;;;;;;5031982;28;51284;-59
2023/07/15 07:44:50;;;;;;;;;2.00;1.00;;;;;;;;5032963;28;51054;-58
2023/07/15 07:47:15;;;;;;;;;1.00;1.00;;;;;;;;5030955;28;51160;-59
2023/07/15 07:49:41;;;;;;;;;1.00;1.00;;;;;;;;5033987;28;50925;-57
2023/07/15 07:52:06;;;;;;;;;2.00;2.00;;;;;;;;5033510;28;51244;-59
2023/07/15 07:54:31;;;;;;;;;2.00;2.00;;;;;;;;5033940;28;51045;-59
2023/07/15 07:56:57;;;;;;;;;1.00;1.00;;;;;;;;5033318;28;51689;-58
2023/07/15 07:59:22;;;;;;;;;1.33;1.33;;;;;;;;5034017;28;51083;-59
2023/07/15 08:01:47;;;;;;;;;1.00;1.00;;;;;;;;5033828;28;51320;-59
2023/07/15 08:04:12;;;;;;;;;3.00;3.00;;;;;;;;5023708;28;51422;-59
2023/07/15 08:06:38;;;;;;;;;1.00;1.00;;;;;;;;5030184;28;51210;-59
2023/07/15 08:09:03;;;;;;;;;1.00;1.00;;;;;;;;5032398;28;51105;-59
2023/07/15 08:11:28;;;;;;;;;1.00;1.00;;;;;;;;5033502;28;51241;-58
2023/07/15 08:13:53;;;;;;;;;2.00;1.00;;;;;;;;5022856;28;51034;-59
2023/07/15 08:16:31;;;;;;;;;4.33;4.33;;;;;;;;5033108;28;50983;-60
2023/07/15 08:18:59;;;;;;;;;1.67;1.67;;;;;;;;5033529;28;51045;-59
2023/07/15 08:21:26;;;;;;;;;3.00;2.33;;;;;;;;5026350;28;51119;-59
2023/07/15 08:23:51;;;;;;;;;1.67;1.33;;;;;;;;5025847;28;50949;-59
2023/07/15 08:26:16;;;;;;;;;2.00;2.00;;;;;;;;5032113;28;52093;-61
2023/07/15 08:28:41;;;;;;;;;2.00;2.00;;;;;;;;5032272;28;51195;-60
2023/07/15 08:31:07;;;;;;;;;2.00;2.00;;;;;;;;5033307;28;51181;-60
2023/07/15 08:33:32;;;;;;;;;1.00;1.00;;;;;;;;5033381;28;51297;-59
2023/07/15 08:35:57;;;;;;;;;3.00;2.00;;;;;;;;5032892;28;51577;-60
2023/07/15 08:38:22;;;;;;;;;1.00;1.00;;;;;;;;5018149;28;50954;-60
2023/07/15 08:40:48;;;;;;;;;1.00;1.00;;;;;;;;5033140;28;50955;-58
2023/07/15 08:43:14;;;;;;;;;1.00;1.00;;;;;;;;5033014;28;50968;-58
2023/07/15 08:45:39;;;;;;;;;1.00;1.00;;;;;;;;5032993;28;51593;-59
2023/07/15 08:48:06;;;;;;;;;2.00;1.67;;;;;;;;5032767;28;51025;-59
2023/07/15 08:50:32;;;;;;;;;2.33;2.00;;;;;;;;5032028;28;51017;-58
2023/07/15 08:53:01;;;;;;;;;1.67;1.67;;;;;;;;5032567;28;51311;-59
2023/07/15 08:55:28;;;;;;;;;2.00;1.00;;;;;;;;5019296;28;51178;-60
2023/07/15 08:57:54;;;;;;;;;1.00;1.00;;;;;;;;5032789;28;51058;-60
2023/07/15 09:00:19;;;;;;;;;1.33;1.00;;;;;;;;5032802;28;51251;-59
2023/07/15 09:02:44;;;;;;;;;2.00;2.00;;;;;;;;5031458;28;51453;-59
2023/07/15 09:05:10;;;;;;;;;1.33;1.33;;;;;;;;5032338;28;51862;-59
2023/07/15 09:07:44;;;;;;;;;3.00;1.00;;;;;;;;5031021;28;52139;-58
2023/07/15 09:10:13;;;;;;;;;2.00;2.00;;;;;;;;5027419;28;51079;-59
2023/07/15 09:12:42;;;;;;;;;2.00;2.00;;;;;;;;5023002;28;51154;-60
2023/07/15 09:15:08;;;;;;;;;2.00;2.00;;;;;;;;5031949;28;51197;-59
2023/07/15 09:17:33;;;;;;;;;2.00;2.00;;;;;;;;5032455;28;50978;-59
2023/07/15 09:20:00;;;;;;;;;7.33;6.67;;;;;;;;5030149;28;51140;-60
2023/07/15 09:22:26;;;;;;;;;2.00;2.00;;;;;;;;5035360;28;51227;-59
2023/07/15 09:24:52;;;;;;;;;3.33;3.33;;;;;;;;5035266;28;52511;-60
2023/07/15 09:27:17;;;;;;;;;3.00;2.00;;;;;;;;5023519;28;51141;-59
2023/07/15 09:29:48;;;;;;;;;3.33;3.00;;;;;;;;5033214;28;51171;-59
2023/07/15 09:32:20;;;;;;;;;3.00;3.00;;;;;;;;5035862;28;51167;-59
2023/07/15 09:34:49;;;;;;;;;4.00;2.33;;;;;;;;5035400;28;52019;-59
2023/07/15 09:37:26;;;;;;;;;2.00;2.00;;;;;;;;5035213;28;51069;-59
2023/07/15 09:39:55;;;;;;;;;2.33;2.00;;;;;;;;5035628;28;50982;-59
2023/07/15 09:42:20;;;;;;;;;2.67;2.00;;;;;;;;5027678;28;50947;-60
2023/07/15 09:44:46;;;;;;;;;2.33;2.33;;;;;;;;5029333;28;51250;-58
2023/07/15 09:47:11;;;;;;;;;3.00;3.00;;;;;;;;5035466;28;50880;-60
2023/07/15 09:49:36;;;;;;;;;3.00;3.00;;;;;;;;5035535;28;50991;-59
2023/07/15 09:52:03;;;;;;;;;3.33;2.33;;;;;;;;5035657;28;50934;-59
2023/07/15 09:54:30;;;;;;;;;2.00;2.00;;;;;;;;5014345;28;52964;-59
2023/07/15 09:57:25;;;;;;;;;2.00;2.00;;;;;;;;5034266;28;51064;-60
2023/07/15 09:59:52;;;;;;;;;2.33;2.33;;;;;;;;5034104;28;51237;-59
2023/07/15 10:02:27;;;;;;;;;2.67;2.67;;;;;;;;5034077;28;50900;-60
2023/07/15 10:04:53;;;;;;;;;3.33;3.33;;;;;;;;5035146;28;50934;-60
2023/07/15 10:07:19;;;;;;;;;5.00;4.00;;;;;;;;5034761;28;50918;-60
2023/07/15 10:09:44;;;;;;;;;4.00;3.33;;;;;;;;5026402;28;50841;-59
2023/07/15 10:12:09;;;;;;;;;3.67;2.67;;;;;;;;5035199;28;51064;-60
2023/07/15 10:14:36;;;;;;;;;2.00;2.00;;;;;;;;5022557;28;52031;-59
2023/07/15 10:17:09;;;;;;;;;4.00;4.00;;;;;;;;5024293;28;50966;-63
2023/07/15 10:19:45;;;;;;;;;4.00;4.00;;;;;;;;5030780;28;51028;-58
2023/07/15 10:22:11;;;;;;;;;4.00;2.33;;;;;;;;5034619;28;51284;-58
2023/07/15 10:24:39;;;;;;;;;3.00;3.00;;;;;;;;5034491;28;51591;-60
2023/07/15 10:27:07;;;;;;;;;4.33;3.33;;;;;;;;5034707;28;51103;-60
2023/07/15 10:29:32;;;;;;;;;2.67;2.00;;;;;;;;5034380;28;50945;-59
2023/07/15 10:32:11;;;;;;;;;3.00;3.00;;;;;;;;5034446;28;50904;-59
2023/07/15 10:34:39;;;;;;;;;3.33;3.00;;;;;;;;5034024;28;51142;-60
2023/07/15 10:37:11;;;;;;;;;3.00;3.00;;;;;;;;5034066;28;51185;-60
2023/07/15 10:39:37;;;;;;;;;3.33;3.00;;;;;;;;5032564;28;51225;-59
2023/07/15 10:42:13;;;;;;;;;2.33;2.33;;;;;;;;5034591;28;50830;-59
2023/07/15 10:44:39;;;;;;;;;3.50;3.50;;;;;;;;5033683;28;52841;-60
2023/07/15 10:47:05;;;;;;;;;4.33;3.33;;;;;;;;5016287;28;51230;-60
2023/07/15 10:49:33;;;;;;;;;3.00;2.00;;;;;;;;5020858;28;50901;-59
2023/07/15 10:51:58;;;;;;;;;3.00;3.00;;;;;;;;5029344;28;50941;-59
2023/07/15 10:54:28;;;;;;;;;1.67;1.67;;;;;;;;5030560;28;51289;-59
2023/07/15 10:56:54;;;;;;;;;2.00;1.33;;;;;;;;5027634;28;51074;-59
2023/07/15 10:59:21;;;;;;;;;2.33;1.67;;;;;;;;5032740;28;51169;-59
2023/07/15 11:01:46;;;;;;;;;3.00;3.00;;;;;;;;5033433;28;51112;-59
2023/07/15 11:04:11;;;;;;;;;4.67;3.00;;;;;;;;5035122;28;51924;-60
2023/07/15 11:06:37;;;;;;;;;1.33;1.33;;;;;;;;5034551;28;51026;-59
2023/07/15 11:09:15;;;;;;;;;3.00;3.00;;;;;;;;5024817;28;51214;-59
2023/07/15 11:11:40;;;;;;;;;2.67;2.67;;;;;;;;5031496;28;51466;-58
2023/07/15 11:14:05;;;;;;;;;3.00;2.67;;;;;;;;5033733;28;51984;-59
2023/07/15 11:16:35;;;;;;;;;11.33;10.00;;;;;;;;5033737;28;50908;-59
2023/07/15 11:19:00;;;;;;;;;5.00;3.67;;;;;;;;5033848;28;51084;-59
2023/07/15 11:21:25;;;;;;;;;2.33;2.00;;;;;;;;5032258;28;51169;-59
2023/07/15 11:23:51;;;;;;;;;2.33;2.00;;;;;;;;5033169;28;52149;-58
2023/07/15 11:26:16;;;;;;;;;3.33;3.33;;;;;;;;5020364;28;51141;-59
2023/07/15 11:28:50;;;;;;;;;3.00;3.00;;;;;;;;5033856;28;51106;-59
2023/07/15 11:31:15;;;;;;;;;6.00;5.00;;;;;;;;5033715;28;51214;-59
2023/07/15 11:33:41;;;;;;;;;4.00;4.00;;;;;;;;5033199;28;51718;-59
2023/07/15 11:36:06;;;;;;;;;3.00;3.00;;;;;;;;5032327;28;51101;-58
2023/07/15 11:38:33;;;;;;;;;6.00;6.00;;;;;;;;5033323;28;50990;-59
2023/07/15 11:40:59;;;;;;;;;3.00;2.67;;;;;;;;5032349;28;50881;-59
2023/07/15 11:43:25;;;;;;;;;3.33;3.33;;;;;;;;5019718;28;50973;-60
2023/07/15 11:45:53;;;;;;;;;3.33;3.33;;;;;;;;5032908;28;50961;-58
2023/07/15 11:48:22;;;;;;;;;3.33;2.33;;;;;;;;5033445;28;51352;-59
2023/07/15 11:50:48;;;;;;;;;3.00;3.00;;;;;;;;5033356;28;51937;-59
2023/07/15 11:53:23;;;;;;;;;1.00;1.00;;;;;;;;5032803;28;52245;-59
2023/07/15 11:55:48;;;;;;;;;3.67;2.00;;;;;;;;5033512;28;51041;-59
2023/07/15 11:58:33;;;;;;;;;2.00;2.00;;;;;;;;5032432;28;50813;-59
2023/07/15 12:00:58;;;;;;;;;2.00;2.00;;;;;;;;5033476;28;51288;-59
2023/07/15 12:03:24;;;;;;;;;3.33;2.67;;;;;;;;5033135;28;51848;-58
2023/07/15 12:05:51;;;;;;;;;3.00;3.00;;;;;;;;5033323;28;50920;-59
2023/07/15 12:08:16;;;;;;;;;2.33;2.33;;;;;;;;5029416;28;50960;-59
2023/07/15 12:10:49;;;;;;;;;2.33;2.33;;;;;;;;5027315;28;51319;-57
2023/07/15 12:13:15;;;;;;;;;3.00;3.00;;;;;;;;5032629;28;51740;-59
2023/07/15 12:15:40;;;;;;;;;3.67;3.33;;;;;;;;5019615;28;51188;-58
2023/07/15 12:18:05;;;;;;;;;2.33;2.33;;;;;;;;5020243;28;51270;-58
2023/07/15 12:20:31;;;;;;;;;2.33;2.33;;;;;;;;5029834;28;51007;-58
2023/07/15 12:22:56;;;;;;;;;3.00;3.00;;;;;;;;5032015;28;51614;-59
2023/07/15 12:25:23;;;;;;;;;6.67;6.67;;;;;;;;5031384;28;51252;-58
2023/07/15 12:27:48;;;;;;;;;4.67;3.33;;;;;;;;5032343;28;51216;-58
2023/07/15 12:30:13;;;;;;;;;3.33;3.33;;;;;;;;5032322;28;50947;-58
2023/07/15 12:32:38;;;;;;;;;3.00;3.00;;;;;;;;5031591;28;52205;-59
2023/07/15 12:35:05;;;;;;;;;3.00;3.00;;;;;;;;5030446;28;51147;-59
2023/07/15 12:37:30;;;;;;;;;4.00;4.00;;;;;;;;5032113;28;51076;-62
2023/07/15 12:39:55;;;;;;;;;2.67;2.67;;;;;;;;5032558;28;51031;-58
2023/07/15 12:42:20;;;;;;;;;2.00;2.00;;;;;;;;5031130;28;52228;-57
2023/07/15 12:44:46;;;;;;;;;3.00;3.00;;;;;;;;5030377;28;51088;-58
2023/07/15 12:47:11;;;;;;;;;2.00;2.00;;;;;;;;5030972;28;51052;-59
2023/07/15 12:49:36;;;;;;;;;2.00;2.00;;;;;;;;5031483;28;51194;-58
2023/07/15 12:52:02;;;;;;;;;2.00;2.00;;;;;;;;5030383;28;51979;-58
2023/07/15 12:54:27;;;;;;;;;2.00;2.00;;;;;;;;5031579;28;51057;-58
2023/07/15 12:56:52;;;;;;;;;2.00;2.00;;;;;;;;5030455;28;51297;-59
2023/07/15 12:59:18;;;;;;;;;4.00;3.67;;;;;;;;5031432;28;50934;-58
2023/07/15 13:01:43;;;;;;;;;2.67;2.67;;;;;;;;5032118;28;51734;-58
2023/07/15 13:04:08;;;;;;;;;2.67;2.67;;;;;;;;5024341;28;51392;-59
2023/07/15 13:06:34;;;;;;;;;3.33;3.33;;;;;;;;5026324;28;51145;-59
2023/07/15 13:08:59;;;;;;;;;3.00;2.67;;;;;;;;5030001;28;51145;-58
2023/07/15 13:11:24;;;;;;;;;3.00;3.00;;;;;;;;5031642;28;51038;-59
2023/07/15 13:13:49;;;;;;;;;5.00;5.00;;;;;;;;5032370;28;50990;-60
2023/07/15 13:16:15;;;;;;;;;4.00;3.00;;;;;;;;5032326;28;51261;-59
2023/07/15 13:18:41;;;;;;;;;2.00;2.00;;;;;;;;5031515;28;51095;-58
2023/07/15 13:21:06;;;;;;;;;4.00;3.33;;;;;;;;5028339;28;51096;-58
2023/07/15 13:23:31;;;;;;;;;3.33;3.33;;;;;;;;5031625;28;50855;-59
2023/07/15 13:25:56;;;;;;;;;4.00;3.00;;;;;;;;5032198;28;50915;-58
2023/07/15 13:28:22;;;;;;;;;4.33;4.00;;;;;;;;5032191;28;50851;-59
2023/07/15 13:30:47;;;;;;;;;3.00;3.00;;;;;;;;5030477;28;51703;-60
2023/07/15 13:33:13;;;;;;;;;1.67;1.00;;;;;;;;5031992;28;51034;-59
2023/07/15 13:35:38;;;;;;;;;2.00;2.00;;;;;;;;5020181;28;51041;-59
2023/07/15 13:38:03;;;;;;;;;4.33;3.33;;;;;;;;5021681;28;51252;-58
2023/07/15 13:40:28;;;;;;;;;4.00;3.00;;;;;;;;5031249;28;51531;-59
2023/07/15 13:42:54;;;;;;;;;3.00;2.67;;;;;;;;5031536;28;50971;-59
2023/07/15 13:45:19;;;;;;;;;3.00;3.00;;;;;;;;5031861;28;50927;-58
2023/07/15 13:47:44;;;;;;;;;2.00;1.33;;;;;;;;5031999;28;51157;-59
2023/07/15 13:50:10;;;;;;;;;4.00;4.00;;;;;;;;5029757;28;52712;-59
2023/07/15 13:52:35;;;;;;;;;3.00;3.00;;;;;;;;5030819;28;50947;-58
2023/07/15 13:55:01;;;;;;;;;4.00;4.00;;;;;;;;5031647;28;51167;-59
2023/07/15 13:57:26;;;;;;;;;3.67;3.67;;;;;;;;5031531;28;51051;-59
2023/07/15 13:59:51;;;;;;;;;3.00;3.00;;;;;;;;5031105;28;51743;-60
2023/07/15 14:02:17;;;;;;;;;5.00;5.00;;;;;;;;5031473;28;51006;-59
2023/07/15 14:04:43;;;;;;;;;3.00;2.00;;;;;;;;5031407;28;51211;-58
2023/07/15 14:07:08;;;;;;;;;2.67;2.67;;;;;;;;5032440;28;51036;-59
2023/07/15 14:09:34;;;;;;;;;5.33;4.33;;;;;;;;5033439;28;50883;-60
2023/07/15 14:11:59;;;;;;;;;3.67;3.00;;;;;;;;5034198;28;51067;-58
2023/07/15 14:14:24;;;;;;;;;2.00;2.00;;;;;;;;5028633;28;50822;-60
2023/07/15 14:16:50;;;;;;;;;3.33;3.00;;;;;;;;5024758;28;52777;-60
2023/07/15 14:19:15;;;;;;;;;2.67;2.00;;;;;;;;5031155;28;51967;-59
2023/07/15 14:21:40;;;;;;;;;2.00;2.00;;;;;;;;5031749;28;50916;-59
2023/07/15 14:24:05;;;;;;;;;2.00;2.00;;;;;;;;5031778;28;51240;-60
2023/07/15 14:26:31;;;;;;;;;3.33;3.00;;;;;;;;5021410;28;51028;-59
2023/07/15 14:28:57;;;;;;;;;2.33;1.33;;;;;;;;5034405;28;51607;-59
2023/07/15 14:31:22;;;;;;;;;2.00;2.00;;;;;;;;5034294;28;50863;-59
2023/07/15 14:33:49;;;;;;;;;1.00;1.00;;;;;;;;5034593;28;51212;-59
2023/07/15 14:36:15;;;;;;;;;3.67;3.33;;;;;;;;5034597;28;51000;-60